Gotham, Wisconsin
Current Conditions -  °F | °C
As of 4:56 PM on Thursday 20 Nov 2014 (Local Time) from KLNR Reporting Station
Clear Clear  
Wind Chill:   Ceiling: Unl
Heat Index: 22°   Visibility: 10mi
Dew Point:   Wind: 14mph
Humidity: 38%   Direction: 300°WNW
Pressure: 30.16"   Gusts: NA
Location:  43.22°N, 90.29°W
Report Text: KLNR 202256Z AUTO 30012KT 10SM CLR M06/M18 A3016 RMK AO2 SLP221 T10561178
Loading
Personal Weather Stations






























Interactive Weather Map New forecast layout! Learn more

10-Day Weather Forecast

Advertisements
Track Severe Weather on mobile